createdAt,value
2023-04-10T00:02:11.263Z,11.80
2023-04-10T00:04:38.203Z,11.80
2023-04-10T00:07:05.566Z,11.70
2023-04-10T00:09:32.433Z,11.70
2023-04-10T00:11:59.786Z,11.60
2023-04-10T00:14:26.480Z,11.70
2023-04-10T00:16:53.432Z,11.60
2023-04-10T00:19:20.317Z,11.50
2023-04-10T00:21:47.173Z,11.50
2023-04-10T00:24:14.080Z,11.50
2023-04-10T00:26:40.971Z,11.40
2023-04-10T00:29:08.183Z,11.40
2023-04-10T00:31:35.002Z,11.20
2023-04-10T00:34:01.805Z,11.10
2023-04-10T00:36:28.558Z,11.30
2023-04-10T00:38:55.295Z,11.00
2023-04-10T00:41:23.875Z,11.30
2023-04-10T00:43:50.934Z,11.10
2023-04-10T00:46:18.015Z,11.30
2023-04-10T00:48:44.950Z,11.10
2023-04-10T00:51:12.483Z,11.20
2023-04-10T00:53:39.189Z,11.00
2023-04-10T00:56:07.318Z,11.00
2023-04-10T00:58:34.186Z,11.20
2023-04-10T01:01:02.090Z,10.80
2023-04-10T01:03:29.106Z,11.10
2023-04-10T01:06:08.538Z,10.70
2023-04-10T01:09:01.837Z,11.10
2023-04-10T01:11:37.860Z,10.80
2023-04-10T01:14:12.669Z,10.80
2023-04-10T01:16:58.283Z,10.70
2023-04-10T01:20:00.658Z,10.80
2023-04-10T01:23:03.211Z,10.70
2023-04-10T01:25:42.154Z,10.60
2023-04-10T01:28:19.549Z,10.60
2023-04-10T01:30:53.679Z,10.40
2023-04-10T01:33:25.234Z,10.50
2023-04-10T01:35:56.322Z,10.50
2023-04-10T01:38:27.161Z,10.60
2023-04-10T01:40:55.900Z,10.60
2023-04-10T01:43:26.151Z,10.60
2023-04-10T01:45:53.482Z,10.60
2023-04-10T01:48:20.889Z,10.70
2023-04-10T01:50:48.668Z,10.50
2023-04-10T01:53:16.544Z,10.60
2023-04-10T01:55:43.732Z,10.40
2023-04-10T01:58:11.271Z,10.50
2023-04-10T02:00:42.982Z,10.40
2023-04-10T02:03:10.890Z,10.30
2023-04-10T02:06:16.195Z,10.30
2023-04-10T02:08:57.138Z,10.30
2023-04-10T02:11:47.412Z,10.30
2023-04-10T02:14:18.234Z,10.40
2023-04-10T02:16:45.560Z,10.20
2023-04-10T02:19:13.941Z,10.50
2023-04-10T02:21:42.180Z,10.50
2023-04-10T02:24:08.973Z,10.40
2023-04-10T02:26:49.651Z,10.40
2023-04-10T02:29:16.789Z,10.50
2023-04-10T02:31:44.687Z,10.10
2023-04-10T02:34:11.696Z,10.30
2023-04-10T02:36:39.427Z,10.10
2023-04-10T02:39:06.885Z,10.10
2023-04-10T02:41:34.021Z,9.90
2023-04-10T02:44:00.972Z,10.00
2023-04-10T02:46:27.761Z,10.10
2023-04-10T02:48:55.367Z,10.20
2023-04-10T02:51:22.413Z,10.20
2023-04-10T02:53:49.352Z,10.00
2023-04-10T02:56:16.168Z,10.30
2023-04-10T02:58:46.137Z,10.40
2023-04-10T03:01:13.606Z,10.10
2023-04-10T03:03:40.500Z,10.20
2023-04-10T03:06:09.592Z,10.00
2023-04-10T03:08:36.572Z,10.20
2023-04-10T03:11:03.333Z,10.10
2023-04-10T03:13:30.009Z,10.30
2023-04-10T03:15:56.796Z,10.10
2023-04-10T03:18:23.719Z,10.20
2023-04-10T03:20:50.974Z,10.00
2023-04-10T03:23:17.878Z,10.10
2023-04-10T03:25:44.649Z,10.10
2023-04-10T03:28:11.499Z,10.10
2023-04-10T03:30:38.287Z,10.00
2023-04-10T03:33:05.110Z,10.00
2023-04-10T03:35:31.925Z,9.90
2023-04-10T03:37:58.688Z,10.20
2023-04-10T03:40:25.522Z,10.20
2023-04-10T03:42:52.247Z,9.80
2023-04-10T03:45:18.976Z,9.70
2023-04-10T03:47:45.733Z,9.60
2023-04-10T03:50:13.201Z,9.70
2023-04-10T03:52:40.444Z,9.80
2023-04-10T03:55:07.527Z,9.70
2023-04-10T03:57:34.328Z,10.20
2023-04-10T04:00:01.111Z,10.00
2023-04-10T04:02:28.016Z,10.10
2023-04-10T04:04:54.935Z,9.90
2023-04-10T04:07:21.687Z,10.00
2023-04-10T04:09:48.454Z,9.90
2023-04-10T04:12:15.388Z,9.70
2023-04-10T04:14:43.241Z,10.10
2023-04-10T04:17:10.605Z,9.90
2023-04-10T04:19:37.347Z,10.00
2023-04-10T04:22:04.135Z,9.90
2023-04-10T04:24:30.844Z,9.90
2023-04-10T04:26:57.644Z,9.90
2023-04-10T04:29:24.392Z,10.30
2023-04-10T04:31:51.381Z,9.90
2023-04-10T04:34:18.384Z,9.90
2023-04-10T04:36:45.213Z,10.20
2023-04-10T04:39:12.195Z,10.00
2023-04-10T04:41:38.947Z,10.20
2023-04-10T04:44:06.597Z,10.20
2023-04-10T04:46:33.390Z,10.10
2023-04-10T04:49:00.338Z,10.30
2023-04-10T04:51:27.186Z,10.00
2023-04-10T04:53:54.090Z,10.20
2023-04-10T04:56:20.967Z,10.30
2023-04-10T04:58:47.674Z,10.30
2023-04-10T05:01:14.402Z,10.40
2023-04-10T05:03:41.372Z,10.20
2023-04-10T05:06:08.178Z,10.60
2023-04-10T05:08:35.004Z,10.60
2023-04-10T05:11:01.694Z,10.40
2023-04-10T05:13:28.414Z,10.50
2023-04-10T05:15:55.125Z,10.50
2023-04-10T05:18:23.743Z,10.70
2023-04-10T05:20:50.816Z,10.80
2023-04-10T05:23:17.676Z,10.60
2023-04-10T05:25:44.528Z,10.70
2023-04-10T05:28:11.251Z,10.80
2023-04-10T05:30:37.939Z,10.70
2023-04-10T05:33:04.766Z,10.80
2023-04-10T05:35:31.523Z,10.80
2023-04-10T05:37:59.053Z,10.80
2023-04-10T05:40:26.186Z,10.70
2023-04-10T05:42:52.915Z,10.60
2023-04-10T05:45:19.585Z,10.80
2023-04-10T05:47:46.599Z,10.90
2023-04-10T05:50:13.357Z,10.70
2023-04-10T05:52:40.115Z,10.80
2023-04-10T05:55:07.571Z,10.50
2023-04-10T05:57:34.382Z,10.50
2023-04-10T06:00:01.188Z,10.70
2023-04-10T06:02:28.230Z,10.70
2023-04-10T06:04:55.365Z,10.60
2023-04-10T06:07:22.209Z,10.90
2023-04-10T06:09:48.906Z,10.60
2023-04-10T06:12:15.722Z,10.80
2023-04-10T06:14:42.675Z,11.00
2023-04-10T06:17:09.362Z,11.10
2023-04-10T06:19:36.037Z,11.00
2023-04-10T06:22:02.741Z,11.20
2023-04-10T06:24:29.482Z,11.50
2023-04-10T06:26:57.143Z,11.30
2023-04-10T06:29:24.033Z,11.30
2023-04-10T06:31:51.138Z,11.50
2023-04-10T06:34:18.157Z,11.60
2023-04-10T06:36:44.842Z,11.80
2023-04-10T06:39:11.541Z,11.70
2023-04-10T06:41:38.356Z,11.80
2023-04-10T06:44:05.175Z,12.20
2023-04-10T06:46:31.965Z,12.40
2023-04-10T06:48:58.701Z,12.30
2023-04-10T06:51:25.902Z,12.40
2023-04-10T06:53:52.634Z,12.30
2023-04-10T06:56:19.654Z,12.40
2023-04-10T06:58:46.362Z,12.20
2023-04-10T07:01:13.188Z,12.60
2023-04-10T07:03:40.111Z,12.60
2023-04-10T07:06:08.408Z,12.60
2023-04-10T07:08:35.145Z,12.50
2023-04-10T07:11:01.885Z,12.50
2023-04-10T07:13:28.678Z,12.80
2023-04-10T07:15:55.422Z,12.80
2023-04-10T07:18:22.140Z,12.70
2023-04-10T07:20:51.055Z,13.10
2023-04-10T07:23:17.835Z,13.10
2023-04-10T07:25:44.587Z,13.30
2023-04-10T07:28:11.371Z,13.40
2023-04-10T07:30:38.285Z,13.50
2023-04-10T07:33:05.205Z,13.70
2023-04-10T07:35:31.996Z,13.90
2023-04-10T07:37:58.694Z,14.00
2023-04-10T07:40:25.588Z,13.80
2023-04-10T07:42:53.878Z,13.80
2023-04-10T07:45:20.779Z,13.90
2023-04-10T07:47:47.799Z,13.80
2023-04-10T07:50:14.648Z,13.90
2023-04-10T07:52:41.463Z,14.00
2023-04-10T07:55:08.424Z,14.20
2023-04-10T07:57:36.077Z,13.90
2023-04-10T08:00:03.379Z,14.10
2023-04-10T08:02:30.606Z,14.00
2023-04-10T08:04:57.589Z,14.20
2023-04-10T08:07:24.363Z,14.40
2023-04-10T08:09:51.106Z,14.30
2023-04-10T08:12:17.879Z,14.50
2023-04-10T08:14:45.268Z,14.40
2023-04-10T08:17:14.728Z,14.60
2023-04-10T08:19:43.447Z,14.70
2023-04-10T08:22:10.440Z,14.80
2023-04-10T08:24:37.221Z,14.80
2023-04-10T08:27:04.105Z,14.70
2023-04-10T08:29:31.027Z,14.60
2023-04-10T08:32:00.650Z,14.90
2023-04-10T08:34:27.945Z,14.70
2023-04-10T08:36:55.409Z,14.90
2023-04-10T08:39:22.163Z,15.10
2023-04-10T08:41:49.138Z,15.10
2023-04-10T08:44:16.218Z,15.20
2023-04-10T08:46:44.455Z,15.30
2023-04-10T08:49:18.050Z,15.40
2023-04-10T08:51:55.042Z,15.50
2023-04-10T08:54:27.620Z,15.50
2023-04-10T08:56:56.014Z,15.60
2023-04-10T08:59:23.073Z,15.70
2023-04-10T09:01:50.033Z,16.00
2023-04-10T09:04:18.088Z,16.00
2023-04-10T09:06:45.210Z,16.20
2023-04-10T09:09:11.980Z,16.20
2023-04-10T09:11:55.293Z,16.20
2023-04-10T09:14:31.751Z,16.10
2023-04-10T09:17:19.947Z,16.10
2023-04-10T09:19:48.903Z,16.00
2023-04-10T09:22:16.519Z,16.20
2023-04-10T09:24:45.516Z,16.50
2023-04-10T09:27:37.435Z,16.30
2023-04-10T09:30:05.428Z,16.30
2023-04-10T09:32:42.195Z,16.30
2023-04-10T09:35:14.558Z,16.10
2023-04-10T09:37:44.987Z,16.20
2023-04-10T09:40:25.610Z,16.40
2023-04-10T09:42:53.401Z,16.70
2023-04-10T09:45:22.405Z,16.80
2023-04-10T09:48:08.028Z,16.70
2023-04-10T09:50:40.349Z,16.80
2023-04-10T09:53:15.715Z,16.80
2023-04-10T09:55:43.518Z,16.80
2023-04-10T09:58:11.533Z,16.90
2023-04-10T10:00:44.600Z,17.20
2023-04-10T10:03:19.213Z,17.20
2023-04-10T10:05:52.007Z,17.10
2023-04-10T10:08:19.125Z,17.20
2023-04-10T10:10:51.675Z,17.60
2023-04-10T10:13:28.159Z,17.50
2023-04-10T10:16:14.401Z,17.50
2023-04-10T10:18:46.043Z,17.60
2023-04-10T10:21:13.947Z,17.60
2023-04-10T10:23:42.428Z,17.80
2023-04-10T10:26:10.462Z,17.70
2023-04-10T10:28:39.414Z,17.70
2023-04-10T10:31:06.979Z,17.90
2023-04-10T10:33:36.921Z,18.00
2023-04-10T10:36:04.858Z,17.80
2023-04-10T10:38:32.850Z,18.00
2023-04-10T10:41:21.430Z,18.00
2023-04-10T10:44:12.010Z,17.90
2023-04-10T10:46:44.947Z,17.90
2023-04-10T10:49:11.840Z,17.80
2023-04-10T10:51:51.565Z,17.80
2023-04-10T10:54:35.483Z,17.90
2023-04-10T10:57:03.356Z,18.00
2023-04-10T10:59:48.500Z,17.80
2023-04-10T11:02:19.430Z,18.20
2023-04-10T11:04:48.064Z,18.20
2023-04-10T11:07:16.287Z,18.30
2023-04-10T11:09:51.123Z,18.20
2023-04-10T11:12:21.547Z,18.30
2023-04-10T11:15:07.276Z,18.40
2023-04-10T11:17:51.779Z,18.50
2023-04-10T11:20:21.898Z,18.30
2023-04-10T11:23:12.266Z,18.30
2023-04-10T11:25:50.425Z,18.40
2023-04-10T11:28:32.218Z,18.50
2023-04-10T11:31:23.468Z,18.60
2023-04-10T11:34:01.917Z,18.50
2023-04-10T11:36:29.216Z,18.20
2023-04-10T11:39:13.278Z,18.40
2023-04-10T11:41:45.814Z,18.50
2023-04-10T11:44:14.811Z,18.40
2023-04-10T11:46:44.148Z,18.70
2023-04-10T11:49:11.419Z,18.60
2023-04-10T11:51:39.543Z,18.50
2023-04-10T11:54:32.612Z,18.70
2023-04-10T11:57:05.128Z,18.80
2023-04-10T11:59:33.508Z,19.20
2023-04-10T12:02:06.564Z,19.00
2023-04-10T12:04:34.084Z,19.00
2023-04-10T12:07:01.407Z,19.20
2023-04-10T12:09:28.206Z,19.10
2023-04-10T12:12:03.567Z,18.80
2023-04-10T12:14:41.641Z,18.90
2023-04-10T12:17:13.127Z,19.10
2023-04-10T12:19:40.166Z,19.20
2023-04-10T12:22:07.604Z,19.30
2023-04-10T12:24:48.046Z,19.40
2023-04-10T12:27:25.594Z,19.50
2023-04-10T12:29:56.911Z,19.60
2023-04-10T12:32:24.895Z,19.60
2023-04-10T12:34:57.907Z,19.50
2023-04-10T12:37:26.129Z,19.50
2023-04-10T12:39:53.008Z,19.50
2023-04-10T12:42:23.085Z,19.50
2023-04-10T12:44:58.871Z,19.60
2023-04-10T12:47:27.389Z,19.60
2023-04-10T12:50:24.293Z,19.60
2023-04-10T12:53:11.626Z,19.70
2023-04-10T12:55:38.764Z,19.70
2023-04-10T12:58:22.538Z,19.50
2023-04-10T13:00:49.741Z,19.80
2023-04-10T13:03:16.709Z,19.90
2023-04-10T13:05:44.489Z,20.00
2023-04-10T13:08:11.222Z,20.00
2023-04-10T13:16:04.007Z,20.00
2023-04-10T13:18:30.833Z,20.00
2023-04-10T13:20:57.628Z,20.10
2023-04-10T13:23:24.376Z,20.00
2023-04-10T13:25:51.115Z,19.80
2023-04-10T13:28:18.959Z,19.90
2023-04-10T13:30:45.707Z,19.90
2023-04-10T13:33:12.501Z,19.80
2023-04-10T13:35:40.343Z,19.40
2023-04-10T13:38:09.511Z,19.70
2023-04-10T13:40:36.440Z,19.40
2023-04-10T13:43:03.272Z,19.50
2023-04-10T13:45:30.072Z,19.50
2023-04-10T13:47:56.881Z,19.60
2023-04-10T13:50:23.731Z,19.30
2023-04-10T13:52:52.209Z,19.50
2023-04-10T13:55:20.384Z,19.70
2023-04-10T13:57:47.102Z,19.40
2023-04-10T14:00:14.530Z,19.80
2023-04-10T14:02:41.382Z,19.80
2023-04-10T14:05:08.785Z,19.80
2023-04-10T14:07:35.660Z,19.80
2023-04-10T14:10:02.758Z,19.80
2023-04-10T14:12:29.648Z,19.80
2023-04-10T14:14:56.941Z,19.90
2023-04-10T14:17:24.244Z,19.90
2023-04-10T14:19:52.491Z,20.00
2023-04-10T14:22:19.291Z,20.00
2023-04-10T14:24:46.309Z,20.00
2023-04-10T14:27:13.578Z,20.00
2023-04-10T14:29:50.597Z,19.90
2023-04-10T14:32:21.398Z,19.80
2023-04-10T14:34:48.130Z,19.70
2023-04-10T14:37:15.635Z,19.60
2023-04-10T14:39:42.738Z,19.70
2023-04-10T14:42:10.609Z,19.80
2023-04-10T14:44:37.395Z,19.80
2023-04-10T14:47:06.492Z,19.80
2023-04-10T14:49:33.451Z,19.70
2023-04-10T14:52:01.032Z,19.60
2023-04-10T14:54:28.122Z,19.60
2023-04-10T14:56:54.915Z,19.60
2023-04-10T14:59:22.071Z,19.40
2023-04-10T15:01:49.495Z,19.40
2023-04-10T15:04:16.913Z,19.30
2023-04-10T15:06:45.112Z,19.30
2023-04-10T15:09:12.560Z,19.10
2023-04-10T15:11:40.433Z,19.10
2023-04-10T15:14:08.897Z,19.30
2023-04-10T15:16:35.674Z,19.30
2023-04-10T15:19:02.439Z,19.30
2023-04-10T15:21:29.330Z,19.30
2023-04-10T15:23:56.388Z,19.30
2023-04-10T15:26:23.380Z,19.40
2023-04-10T15:28:50.319Z,19.50
2023-04-10T15:31:17.187Z,19.20
2023-04-10T15:33:44.035Z,19.10
2023-04-10T15:36:10.898Z,19.20
2023-04-10T15:38:37.885Z,18.90
2023-04-10T15:41:12.670Z,19.40
2023-04-10T15:43:40.578Z,19.30
2023-04-10T15:46:09.376Z,19.30
2023-04-10T15:48:38.155Z,19.20
2023-04-10T15:51:06.305Z,19.30
2023-04-10T15:53:34.067Z,19.40
2023-04-10T15:56:01.314Z,19.30
2023-04-10T15:58:28.235Z,19.30
2023-04-10T16:00:54.977Z,19.30
2023-04-10T16:03:21.932Z,19.30
2023-04-10T16:05:48.714Z,19.20
2023-04-10T16:08:15.803Z,19.00
2023-04-10T16:10:42.464Z,19.50
2023-04-10T16:13:09.292Z,18.90
2023-04-10T16:15:39.270Z,19.30
2023-04-10T16:18:07.830Z,19.40
2023-04-10T16:20:35.012Z,19.40
2023-04-10T16:23:01.908Z,19.50
2023-04-10T16:25:28.901Z,19.60
2023-04-10T16:27:56.144Z,19.70
2023-04-10T16:30:24.507Z,19.70
2023-04-10T16:32:51.938Z,19.80
2023-04-10T16:35:19.337Z,19.60
2023-04-10T16:37:46.552Z,19.50
2023-04-10T16:40:13.579Z,19.30
2023-04-10T16:42:40.784Z,19.40
2023-04-10T16:45:08.593Z,19.30
2023-04-10T16:47:35.640Z,19.30
2023-04-10T16:50:02.772Z,19.20
2023-04-10T16:52:29.567Z,19.10
2023-04-10T16:54:56.309Z,19.20
2023-04-10T16:57:23.105Z,19.30
2023-04-10T16:59:49.927Z,19.10
2023-04-10T17:02:16.646Z,18.70
2023-04-10T17:04:43.434Z,19.00
2023-04-10T17:07:10.147Z,18.90
2023-04-10T17:09:37.832Z,18.90
2023-04-10T17:12:04.817Z,18.90
2023-04-10T17:14:31.624Z,19.10
2023-04-10T17:16:58.419Z,19.00
2023-04-10T17:19:25.201Z,18.70
2023-04-10T17:21:52.331Z,18.70
2023-04-10T17:24:19.117Z,18.70
2023-04-10T17:26:45.850Z,18.60
2023-04-10T17:29:12.605Z,18.60
2023-04-10T17:31:39.466Z,18.40
2023-04-10T17:34:06.518Z,18.30
2023-04-10T17:36:33.364Z,18.10
2023-04-10T17:39:00.939Z,18.30
2023-04-10T17:41:27.786Z,18.20
2023-04-10T17:43:54.596Z,18.20
2023-04-10T17:46:21.623Z,18.30
2023-04-10T17:48:48.531Z,18.10
2023-04-10T17:51:15.338Z,17.90
2023-04-10T17:53:42.094Z,18.10
2023-04-10T17:56:16.887Z,18.00
2023-04-10T17:58:43.635Z,18.00
2023-04-10T18:01:11.171Z,17.70
2023-04-10T18:03:38.015Z,17.90
2023-04-10T18:06:04.859Z,17.70
2023-04-10T18:08:31.521Z,17.70
2023-04-10T18:10:58.442Z,17.70
2023-04-10T18:13:25.196Z,18.00
2023-04-10T18:15:51.956Z,17.60
2023-04-10T18:18:18.678Z,17.70
2023-04-10T18:20:45.493Z,17.80
2023-04-10T18:23:12.271Z,17.70
2023-04-10T18:25:38.969Z,17.70
2023-04-10T18:28:14.553Z,17.60
2023-04-10T18:30:42.288Z,17.80
2023-04-10T18:33:11.110Z,17.80
2023-04-10T18:35:38.526Z,17.50
2023-04-10T18:38:05.347Z,17.30
2023-04-10T18:40:34.448Z,17.30
2023-04-10T18:43:01.196Z,17.50
2023-04-10T18:45:27.909Z,17.50
2023-04-10T18:47:54.723Z,17.50
2023-04-10T18:50:21.413Z,17.50
2023-04-10T18:52:48.196Z,17.70
2023-04-10T18:55:14.993Z,17.50
2023-04-10T18:57:41.798Z,17.50
2023-04-10T19:00:11.366Z,17.30
2023-04-10T19:02:38.192Z,17.30
2023-04-10T19:05:05.378Z,17.40
2023-04-10T19:07:32.684Z,17.20
2023-04-10T19:09:59.578Z,17.00
2023-04-10T19:12:26.276Z,17.10
2023-04-10T19:14:52.929Z,17.60
2023-04-10T19:17:21.753Z,17.10
2023-04-10T19:19:48.738Z,17.10
2023-04-10T19:22:16.402Z,17.20
2023-04-10T19:24:43.148Z,17.10
2023-04-10T19:27:09.945Z,17.30
2023-04-10T19:29:36.693Z,17.30
2023-04-10T19:32:03.843Z,16.80
2023-04-10T19:34:30.716Z,17.10
2023-04-10T19:36:57.534Z,17.00
2023-04-10T19:39:24.261Z,16.80
2023-04-10T19:41:51.098Z,16.90
2023-04-10T19:44:17.806Z,16.70
2023-04-10T19:46:44.707Z,16.80
2023-04-10T19:49:12.391Z,16.60
2023-04-10T19:51:39.151Z,16.30
2023-04-10T19:54:06.142Z,16.10
2023-04-10T19:56:35.449Z,16.20
2023-04-10T19:59:02.549Z,16.00
2023-04-10T20:01:30.270Z,16.10
2023-04-10T20:03:58.655Z,16.10
2023-04-10T20:06:27.584Z,16.10
2023-04-10T20:08:56.728Z,16.00
2023-04-10T20:11:31.188Z,15.90
2023-04-10T20:14:00.107Z,16.10
2023-04-10T20:16:27.964Z,16.00
2023-04-10T20:18:56.147Z,16.20
2023-04-10T20:21:23.752Z,15.80
2023-04-10T20:23:52.127Z,15.80
2023-04-10T20:26:22.655Z,15.60
2023-04-10T20:28:49.652Z,15.50
2023-04-10T20:31:16.480Z,15.50
2023-04-10T20:33:43.236Z,15.60
2023-04-10T20:36:10.446Z,15.50
2023-04-10T20:38:37.213Z,15.90
2023-04-10T20:41:04.061Z,15.80
2023-04-10T20:43:31.494Z,15.60
2023-04-10T20:46:09.101Z,15.70
2023-04-10T20:48:37.553Z,15.60
2023-04-10T20:51:07.423Z,15.80
2023-04-10T20:53:34.246Z,15.60
2023-04-10T20:56:01.511Z,15.70
2023-04-10T20:58:29.343Z,15.80
2023-04-10T21:00:56.767Z,15.60
2023-04-10T21:03:23.939Z,15.70
2023-04-10T21:05:53.560Z,15.30
2023-04-10T21:08:20.835Z,15.50
2023-04-10T21:10:47.707Z,15.60
2023-04-10T21:13:15.178Z,15.50
2023-04-10T21:15:44.946Z,15.60
2023-04-10T21:18:12.297Z,15.60
2023-04-10T21:20:39.170Z,15.10
2023-04-10T21:23:06.083Z,15.00
2023-04-10T21:25:33.685Z,15.00
2023-04-10T21:28:01.744Z,14.90
2023-04-10T21:30:29.583Z,14.80
2023-04-10T21:32:56.439Z,14.90
2023-04-10T21:35:24.738Z,14.70
2023-04-10T21:37:57.680Z,14.50
2023-04-10T21:40:26.183Z,14.60
2023-04-10T21:42:54.792Z,14.70
2023-04-10T21:45:22.812Z,14.60
2023-04-10T21:47:49.667Z,14.50
2023-04-10T21:50:16.454Z,14.30
2023-04-10T21:52:43.248Z,14.50
2023-04-10T21:55:10.491Z,14.60
2023-04-10T21:57:37.261Z,14.70
2023-04-10T22:00:04.585Z,14.60
2023-04-10T22:02:31.341Z,14.50
2023-04-10T22:04:58.095Z,14.60
2023-04-10T22:07:24.863Z,14.60
2023-04-10T22:09:51.594Z,14.70
2023-04-10T22:12:18.398Z,14.50
2023-04-10T22:14:46.290Z,14.40
2023-04-10T22:17:13.152Z,14.60
2023-04-10T22:19:39.978Z,14.40
2023-04-10T22:22:06.697Z,14.40
2023-04-10T22:24:35.222Z,14.60
2023-04-10T22:27:02.095Z,14.50
2023-04-10T22:29:28.829Z,14.50
2023-04-10T22:31:56.079Z,14.60
2023-04-10T22:34:22.979Z,14.60
2023-04-10T22:36:52.038Z,14.30
2023-04-10T22:39:18.927Z,14.70
2023-04-10T22:41:45.692Z,14.30
2023-04-10T22:44:12.830Z,14.70
2023-04-10T22:46:39.679Z,14.70
2023-04-10T22:49:07.118Z,14.40
2023-04-10T22:51:34.024Z,14.70
2023-04-10T22:54:00.812Z,14.60
2023-04-10T22:56:29.324Z,14.20
2023-04-10T22:58:56.248Z,14.30
2023-04-10T23:01:23.387Z,14.50
2023-04-10T23:03:53.557Z,14.40
2023-04-10T23:06:20.689Z,14.10
2023-04-10T23:08:47.428Z,14.10
2023-04-10T23:11:14.378Z,14.00
2023-04-10T23:13:43.022Z,14.20
2023-04-10T23:16:10.250Z,14.00
2023-04-10T23:18:37.596Z,13.80
2023-04-10T23:21:07.012Z,13.80
2023-04-10T23:23:33.874Z,13.70
2023-04-10T23:26:01.108Z,13.90
2023-04-10T23:28:28.483Z,14.00
2023-04-10T23:30:55.335Z,13.70
2023-04-10T23:33:22.311Z,13.90
2023-04-10T23:35:49.175Z,13.60
2023-04-10T23:38:15.986Z,13.50
2023-04-10T23:40:42.736Z,13.50
2023-04-10T23:43:09.478Z,13.50
2023-04-10T23:45:36.325Z,13.80
2023-04-10T23:48:03.155Z,13.70
2023-04-10T23:50:29.952Z,13.20
2023-04-10T23:52:56.831Z,13.30
2023-04-10T23:55:23.888Z,13.20
2023-04-10T23:57:50.657Z,13.20
